Time;durP1;ratioP1;P1;durP2;ratioP2;P2;SDS_P1;SDS_P2;PMS_P1;PMS_P2;Temp;Humidity;BMP_temperature;BMP_pressure;BME280_temperature;BME280_humidity;BME280_pressure;Samples;Min_cycle;Max_cycle;Signal;HPM_P1;HPM_P2
2023/05/28 04:51:03;;;;;;;4.30;3.00;;;;;;;9.21;100.00;97867.72;1711719;75;776867;-66
2023/05/28 04:53:33;;;;;;;3.80;2.80;;;;;;;9.31;100.00;97863.75;1705123;75;682622;-67
2023/05/28 04:56:04;;;;;;;2.70;2.50;;;;;;;9.52;100.00;97861.94;1712944;75;678522;-68
2023/05/28 04:58:34;;;;;;;3.10;2.65;;;;;;;9.64;100.00;97859.47;1705319;75;676203;-68
2023/05/28 05:01:07;;;;;;;5.00;3.75;;;;;;;9.81;100.00;97864.09;1713208;75;675503;-66
2023/05/28 05:03:37;;;;;;;6.70;4.10;;;;;;;10.14;100.00;97865.97;1704715;75;675048;-66
2023/05/28 05:06:11;;;;;;;4.50;3.40;;;;;;;10.28;100.00;97866.50;1712361;75;679607;-68
2023/05/28 05:08:41;;;;;;;3.60;2.90;;;;;;;10.47;100.00;97870.63;1704499;75;684941;-68
2023/05/28 05:11:11;;;;;;;3.80;3.00;;;;;;;10.59;100.00;97871.59;1713204;75;673422;-66
2023/05/28 05:13:41;;;;;;;4.50;3.80;;;;;;;10.71;100.00;97869.81;1704152;75;682923;-68
2023/05/28 05:16:12;;;;;;;6.70;4.40;;;;;;;10.87;100.00;97870.09;1712787;75;676039;-66
2023/05/28 05:18:42;;;;;;;6.80;4.70;;;;;;;11.06;100.00;97867.91;1703714;75;679228;-65
2023/05/28 05:21:15;;;;;;;6.90;4.90;;;;;;;11.25;100.00;97867.69;1712244;75;679711;-66
2023/05/28 05:23:45;;;;;;;8.80;5.60;;;;;;;11.43;100.00;97872.22;1704682;75;688196;-66
2023/05/28 05:26:16;;;;;;;8.35;4.80;;;;;;;11.70;100.00;97873.84;1712784;75;678159;-65
2023/05/28 05:28:47;;;;;;;6.50;4.05;;;;;;;11.79;100.00;97878.44;1704977;75;675044;-65
2023/05/28 05:31:17;;;;;;;8.20;4.05;;;;;;;11.91;100.00;97883.63;1712909;75;669495;-66
2023/05/28 05:33:47;;;;;;;9.10;4.20;;;;;;;12.09;100.00;97877.09;1705156;75;674367;-66
2023/05/28 05:36:20;;;;;;;8.50;5.50;;;;;;;12.15;100.00;97879.94;1712961;75;682486;-66
2023/05/28 05:38:50;;;;;;;7.05;4.25;;;;;;;12.36;100.00;97875.94;1705230;75;674970;-67
2023/05/28 05:41:21;;;;;;;10.45;6.00;;;;;;;12.36;100.00;97875.94;1712641;75;676867;-67
2023/05/28 05:43:51;;;;;;;9.70;6.60;;;;;;;12.50;100.00;97879.06;1705019;75;682840;-67
2023/05/28 05:46:21;;;;;;;9.80;5.50;;;;;;;12.61;100.00;97881.19;1712208;75;672791;-65
2023/05/28 05:48:51;;;;;;;10.20;4.70;;;;;;;12.76;100.00;97885.31;1704740;75;685325;-66
2023/05/28 05:51:24;;;;;;;9.50;5.00;;;;;;;12.91;100.00;97884.47;1711996;75;693639;-68
2023/05/28 05:53:54;;;;;;;9.20;5.25;;;;;;;13.03;100.00;97883.31;1703933;75;755207;-65
2023/05/28 05:56:25;;;;;;;7.85;4.85;;;;;;;13.16;100.00;97880.94;1711947;75;684391;-66
2023/05/28 05:58:55;;;;;;;8.10;4.45;;;;;;;13.29;100.00;97885.31;1703412;75;758657;-66
2023/05/28 06:01:26;;;;;;;7.70;4.95;;;;;;;13.41;100.00;97884.91;1711542;75;672159;-68
2023/05/28 06:03:56;;;;;;;8.45;5.25;;;;;;;13.53;99.83;97882.22;1701771;75;750522;-67
2023/05/28 06:06:29;;;;;;;9.80;4.90;;;;;;;13.65;100.00;97878.31;1710941;75;671017;-67
2023/05/28 06:09:00;;;;;;;9.50;4.65;;;;;;;13.85;100.00;97880.94;1701924;75;747712;-65
2023/05/28 06:11:30;;;;;;;10.00;4.70;;;;;;;13.91;99.69;97880.22;1710661;75;678067;-65
2023/05/28 06:14:00;;;;;;;8.15;4.90;;;;;;;13.97;96.71;97880.97;1702523;75;751125;-66
2023/05/28 06:16:31;;;;;;;6.40;4.00;;;;;;;14.17;99.65;97877.31;1712447;75;673527;-68
2023/05/28 06:19:01;;;;;;;6.80;4.10;;;;;;;14.37;98.93;97879.16;1702462;75;730246;-68
2023/05/28 06:21:34;;;;;;;10.20;5.05;;;;;;;14.42;100.00;97881.91;1711452;75;677314;-69
2023/05/28 06:24:04;;;;;;;7.40;4.55;;;;;;;14.49;96.60;97881.44;1702257;75;754501;-72
2023/05/28 06:26:34;;;;;;;7.35;3.95;;;;;;;14.64;99.71;97875.72;1711125;75;673479;-67
2023/05/28 06:29:06;;;;;;;6.20;4.20;;;;;;;14.77;94.12;97880.00;1701854;75;761494;-66
2023/05/28 06:31:36;;;;;;;8.10;4.20;;;;;;;14.94;95.79;97882.81;1710870;75;677138;-66
2023/05/28 06:34:06;;;;;;;10.05;4.45;;;;;;;15.09;91.58;97889.56;1702465;75;741187;-71
2023/05/28 06:36:39;;;;;;;10.00;4.70;;;;;;;15.04;93.27;97884.06;1711491;75;669596;-66
2023/05/28 06:39:11;;;;;;;7.60;4.10;;;;;;;15.17;94.91;97884.31;1701855;75;735216;-69
2023/05/28 06:41:41;;;;;;;8.30;4.10;;;;;;;15.20;92.97;97890.81;1710502;75;674184;-68
2023/05/28 06:44:11;;;;;;;8.65;4.70;;;;;;;15.28;93.53;97894.59;1699652;75;758049;-68
2023/05/28 06:46:41;;;;;;;8.20;4.05;;;;;;;15.36;90.84;97886.56;1709787;75;692512;-68
2023/05/28 06:49:11;;;;;;;10.75;5.20;;;;;;;15.49;93.92;97884.81;1701967;75;759200;-68
2023/05/28 06:51:45;;;;;;;9.60;5.05;;;;;;;15.54;89.80;97886.81;1710306;75;681945;-68
2023/05/28 06:54:15;;;;;;;9.35;5.05;;;;;;;15.62;89.94;97886.28;1702109;75;721782;-67
2023/05/28 06:56:45;;;;;;;10.90;4.70;;;;;;;15.80;92.00;97885.00;1710809;75;681233;-66
2023/05/28 06:59:15;;;;;;;8.80;4.70;;;;;;;15.74;90.78;97882.28;1702316;75;757968;-66
2023/05/28 07:01:46;;;;;;;6.95;4.55;;;;;;;15.88;91.44;97877.72;1711007;75;674922;-71
2023/05/28 07:04:16;;;;;;;11.40;4.15;;;;;;;16.01;87.85;97877.19;1701220;75;720831;-69
2023/05/28 07:06:49;;;;;;;6.10;4.15;;;;;;;16.18;84.28;97878.59;1710201;75;672444;-70
2023/05/28 07:09:19;;;;;;;8.35;4.35;;;;;;;16.37;86.65;97886.31;1701833;75;761685;-69
2023/05/28 07:11:49;;;;;;;11.55;4.95;;;;;;;16.29;81.94;97886.09;1710462;75;695693;-65
2023/05/28 07:14:19;;;;;;;11.00;4.75;;;;;;;16.35;81.67;97880.56;1702166;75;750980;-66
2023/05/28 07:16:49;;;;;;;8.95;4.15;;;;;;;16.66;83.21;97879.38;1710604;75;673647;-66
2023/05/28 07:19:19;;;;;;;11.80;4.40;;;;;;;16.78;79.57;97880.06;1701755;75;747295;-66
2023/05/28 07:21:52;;;;;;;6.25;3.50;;;;;;;16.91;78.40;97871.19;1710534;75;673995;-68
2023/05/28 07:24:22;;;;;;;8.60;4.30;;;;;;;16.91;75.24;97868.44;1701440;75;743649;-65
2023/05/28 07:26:52;;;;;;;13.45;4.45;;;;;;;17.10;79.74;97874.84;1710475;75;677868;-65
2023/05/28 07:29:23;;;;;;;8.80;4.20;;;;;;;17.28;77.59;97878.22;1701484;75;748025;-67
2023/05/28 07:31:53;;;;;;;9.80;4.25;;;;;;;17.28;76.71;97883.75;1710298;75;673491;-65
2023/05/28 07:34:23;;;;;;;7.90;4.10;;;;;;;17.38;76.01;97882.16;1701733;75;745642;-67
2023/05/28 07:36:56;;;;;;;8.90;4.70;;;;;;;17.41;74.38;97879.13;1709892;75;678634;-71
2023/05/28 07:39:26;;;;;;;7.70;4.10;;;;;;;17.46;75.89;97881.09;1700780;75;767493;-68
2023/05/28 07:41:56;;;;;;;6.40;4.05;;;;;;;17.76;75.56;97882.31;1710565;75;682915;-66
2023/05/28 07:44:26;;;;;;;10.70;4.70;;;;;;;17.66;71.21;97876.38;1701797;75;755365;-66
2023/05/28 07:46:56;;;;;;;8.75;4.15;;;;;;;17.85;71.47;97868.88;1709921;75;671669;-66
2023/05/28 07:49:27;;;;;;;9.30;4.40;;;;;;;17.81;72.10;97864.91;1701681;75;759463;-68
2023/05/28 07:52:02;;;;;;;9.95;5.10;;;;;;;17.77;71.87;97862.38;1710233;75;671528;-65
2023/05/28 07:54:32;;;;;;;8.60;4.15;;;;;;;17.98;68.05;97867.50;1701243;75;747480;-69
2023/05/28 07:57:03;;;;;;;12.40;4.40;;;;;;;18.09;70.49;97854.25;1709859;75;691099;-71
2023/05/28 07:59:33;;;;;;;7.80;3.90;;;;;;;18.04;69.69;97859.88;1701373;75;740034;-66
2023/05/28 08:02:03;;;;;;;11.30;4.50;;;;;;;17.98;63.89;97854.38;1710037;75;682299;-66
2023/05/28 08:04:33;;;;;;;6.35;3.65;;;;;;;18.40;65.65;97843.78;1701638;75;752845;-70
2023/05/28 08:07:06;;;;;;;5.75;3.45;;;;;;;18.31;60.06;97853.22;1710151;75;675919;-69
2023/05/28 08:09:37;;;;;;;6.95;3.95;;;;;;;18.37;61.41;97855.91;1701654;75;773178;-70
2023/05/28 08:12:07;;;;;;;8.15;3.70;;;;;;;18.73;62.36;97850.88;1710172;75;671541;-65
2023/05/28 08:14:38;;;;;;;9.70;3.85;;;;;;;18.78;62.19;97840.25;1701303;75;753509;-66
2023/05/28 08:17:08;;;;;;;7.90;3.70;;;;;;;18.95;60.79;97843.50;1710418;75;674712;-67
2023/05/28 08:19:38;;;;;;;6.40;3.60;;;;;;;18.93;61.65;97843.31;1701457;75;757363;-67
2023/05/28 08:22:11;;;;;;;8.30;3.60;;;;;;;19.00;61.35;97839.94;1709796;75;676841;-66
2023/05/28 08:24:42;;;;;;;8.10;4.30;;;;;;;19.08;59.87;97834.50;1701111;75;748133;-70
2023/05/28 08:27:12;;;;;;;7.45;3.50;;;;;;;19.06;58.94;97843.34;1708999;75;683586;-65
2023/05/28 08:29:42;;;;;;;7.35;3.90;;;;;;;19.16;57.80;97835.38;1701164;75;738779;-67
2023/05/28 08:32:12;;;;;;;10.30;4.45;;;;;;;19.22;58.13;97832.47;1710673;75;675678;-68
2023/05/28 08:34:42;;;;;;;8.30;4.30;;;;;;;19.20;59.39;97833.03;1701118;75;746717;-68
2023/05/28 08:37:17;;;;;;;8.20;4.40;;;;;;;19.28;59.20;97836.66;1710257;75;672358;-69
2023/05/28 08:39:48;;;;;;;6.30;3.20;;;;;;;19.32;57.41;97825.25;1701814;75;726662;-67
2023/05/28 08:42:18;;;;;;;9.20;4.10;;;;;;;18.94;59.64;97828.91;1709508;75;678216;-69
2023/05/28 08:44:48;;;;;;;5.85;3.60;;;;;;;19.47;58.79;97827.53;1700653;75;746185;-69
2023/05/28 08:47:19;;;;;;;8.30;3.90;;;;;;;19.16;56.77;97822.22;1709693;75;680410;-69
2023/05/28 08:49:55;;;;;;;7.00;3.80;;;;;;;19.29;57.50;97829.09;1701443;75;764483;-65
2023/05/28 08:52:29;;;;;;;8.15;3.45;;;;;;;19.54;57.15;97822.06;1702742;75;677389;-66
2023/05/28 08:55:00;;;;;;;8.30;4.40;;;;;;;19.14;57.20;97818.50;1710624;75;682397;-67
2023/05/28 08:57:33;;;;;;;10.40;3.90;;;;;;;19.36;59.41;97817.34;1701677;75;680184;-68
2023/05/28 09:00:07;;;;;;;7.80;4.10;;;;;;;19.50;57.05;97813.31;1710466;75;675400;-70
2023/05/28 09:02:38;;;;;;;5.70;3.50;;;;;;;19.91;56.43;97811.28;1702679;75;674508;-69
2023/05/28 09:05:10;;;;;;;5.80;3.00;;;;;;;20.02;56.47;97811.09;1709277;75;844637;-68
2023/05/28 09:07:44;;;;;;;7.10;3.50;;;;;;;19.88;54.65;97813.13;1702294;75;687857;-71
2023/05/28 09:10:15;;;;;;;6.35;3.30;;;;;;;20.36;54.33;97799.97;1710748;75;672824;-69
2023/05/28 09:13:01;;;;;;;6.40;2.60;;;;;;;20.60;54.14;97804.53;1702507;75;670466;-72
2023/05/28 09:15:33;;;;;;;4.90;3.30;;;;;;;20.60;54.34;97798.97;1702715;75;672950;-72
2023/05/28 09:18:04;;;;;;;5.30;2.70;;;;;;;20.81;53.53;97801.03;1709132;75;762635;-71
2023/05/28 09:20:34;;;;;;;4.90;2.70;;;;;;;20.83;52.11;97796.41;1702899;75;675414;-72
2023/05/28 09:23:09;;;;;;;8.30;3.80;;;;;;;21.00;52.80;97784.88;1710104;75;676779;-69
2023/05/28 09:25:40;;;;;;;6.70;2.80;;;;;;;21.11;51.19;97783.81;1701668;75;780701;-70
2023/05/28 09:28:10;;;;;;;8.60;4.00;;;;;;;20.92;50.93;97786.09;1710110;75;676794;-68
2023/05/28 09:30:45;;;;;;;6.40;3.60;;;;;;;21.14;51.77;97782.75;1702415;75;697971;-72
2023/05/28 09:33:15;;;;;;;11.20;4.00;;;;;;;20.84;50.72;97783.97;1709768;75;681012;-70
2023/05/28 09:35:45;;;;;;;8.50;4.10;;;;;;;20.46;50.68;97785.63;1702237;75;695622;-68
2023/05/28 09:38:24;;;;;;;9.40;3.80;;;;;;;20.12;50.62;97778.03;1711077;75;682235;-72
2023/05/28 09:40:54;;;;;;;6.90;3.50;;;;;;;20.52;50.78;97778.66;1702755;75;729921;-70
2023/05/28 09:43:33;;;;;;;10.05;4.45;;;;;;;20.42;50.68;97775.59;1696633;75;1928260;-69
2023/05/28 09:46:13;;;;;;;10.25;3.85;;;;;;;20.56;49.93;97767.22;1689777;75;1731579;-69
2023/05/28 09:48:43;;;;;;;10.00;3.60;;;;;;;21.09;50.61;97763.38;1700815;75;878877;-70
2023/05/28 09:51:16;;;;;;;6.40;3.30;;;;;;;21.51;49.11;97769.66;1710289;75;750302;-69
2023/05/28 09:53:53;;;;;;;5.85;2.70;;;;;;;22.25;46.82;97769.06;1702679;75;698084;-71
2023/05/28 09:56:25;;;;;;;6.00;3.10;;;;;;;22.22;45.96;97767.38;1711021;75;678733;-67
2023/05/28 09:58:59;;;;;;;6.10;2.90;;;;;;;22.40;47.46;97767.63;1703395;75;669849;-68
2023/05/28 10:01:34;;;;;;;5.50;2.60;;;;;;;22.34;44.86;97765.00;1708700;75;932330;-70
2023/05/28 10:04:10;;;;;;;3.70;2.30;;;;;;;22.86;47.53;97771.22;1687875;75;1947641;-72
2023/05/28 10:06:44;;;;;;;4.80;2.30;;;;;;;22.93;45.92;97764.88;1693833;75;1847850;-70
2023/05/28 10:09:20;;;;;;;4.10;2.40;;;;;;;22.94;45.19;97758.00;1709786;75;675580;-72
2023/05/28 10:12:01;;;;;;;5.50;3.10;;;;;;;22.46;45.04;97752.19;1702464;75;682554;-68
2023/05/28 10:14:37;;;;;;;9.60;4.50;;;;;;;22.01;46.14;97747.97;1710807;75;680425;-70
2023/05/28 10:17:09;;;;;;;10.15;4.05;;;;;;;21.94;46.90;97745.91;1700681;75;817385;-69
2023/05/28 10:19:40;;;;;;;5.40;3.00;;;;;;;22.69;44.92;97743.13;1710915;75;682896;-68
2023/05/28 10:22:12;;;;;;;6.85;3.45;;;;;;;21.98;44.86;97743.47;1702286;75;738946;-69
2023/05/28 10:24:45;;;;;;;4.90;2.85;;;;;;;23.02;44.99;97734.94;1710465;75;677345;-68
2023/05/28 10:27:18;;;;;;;6.00;2.95;;;;;;;22.68;44.53;97736.03;1701790;75;741351;-70
2023/05/28 10:29:49;;;;;;;5.75;2.85;;;;;;;23.15;44.60;97729.91;1710564;75;668628;-73
2023/05/28 10:32:20;;;;;;;3.90;2.50;;;;;;;22.95;45.36;97737.16;1700951;75;747643;-71
2023/05/28 10:34:50;;;;;;;3.40;2.20;;;;;;;23.54;43.69;97727.03;1711267;75;673676;-67
2023/05/28 10:37:26;;;;;;;9.90;6.80;;;;;;;23.13;43.37;97721.34;1701500;75;745101;-67
2023/05/28 10:40:00;;;;;;;5.60;3.20;;;;;;;22.29;45.34;97724.06;1702986;75;681805;-67
2023/05/28 10:42:30;;;;;;;6.50;2.90;;;;;;;23.42;43.86;97723.16;1709269;75;824439;-70
2023/05/28 10:45:11;;;;;;;6.80;3.60;;;;;;;22.47;45.32;97730.63;1702476;75;739842;-68
2023/05/28 10:47:43;;;;;;;7.50;3.30;;;;;;;23.31;45.83;97722.25;1709151;75;765643;-71
2023/05/28 10:50:18;;;;;;;7.80;3.10;;;;;;;23.44;45.13;97721.28;1703297;75;683669;-74
2023/05/28 10:53:08;;;;;;;9.50;3.90;;;;;;;23.41;45.21;97718.88;1710810;75;709363;-70
2023/05/28 10:55:55;;;;;;;6.05;3.10;;;;;;;23.56;44.64;97721.63;1701689;75;744025;-72
2023/05/28 10:58:30;;;;;;;4.90;2.70;;;;;;;23.70;44.41;97714.50;1702657;75;686581;-68
2023/05/28 11:01:23;;;;;;;7.20;3.70;;;;;;;23.93;45.36;97716.47;1711444;75;675319;-69
2023/05/28 11:03:57;;;;;;;7.45;3.55;;;;;;;23.91;44.01;97719.84;1702216;75;755924;-70
2023/05/28 11:06:29;;;;;;;5.35;3.00;;;;;;;24.12;45.06;97722.31;1710618;75;678743;-71
2023/05/28 11:09:02;;;;;;;10.20;4.20;;;;;;;24.28;44.22;97723.00;1677727;75;2780374;-71
2023/05/28 11:11:36;;;;;;;5.60;3.10;;;;;;;24.42;43.98;97720.69;1707731;75;970638;-73
2023/05/28 11:14:06;;;;;;;9.10;3.45;;;;;;;24.40;44.83;97718.44;1702225;75;749187;-75
2023/05/28 11:16:36;;;;;;;9.50;4.20;;;;;;;24.12;45.04;97716.00;1710913;75;727007;-69
2023/05/28 11:19:08;;;;;;;6.95;4.10;;;;;;;23.66;44.37;97713.38;1702641;75;754143;-69
2023/05/28 11:21:55;;;;;;;8.10;3.20;;;;;;;23.62;44.64;97716.59;1711516;75;694265;-68
2023/05/28 11:24:25;;;;;;;7.60;3.25;;;;;;;23.94;44.64;97713.09;1702502;75;748493;-68
2023/05/28 11:26:59;;;;;;;6.10;3.50;;;;;;;23.80;45.55;97709.81;1710281;75;685153;-73
2023/05/28 11:29:29;;;;;;;7.55;3.75;;;;;;;23.68;45.05;97700.34;1701696;75;750464;-72
2023/05/28 11:32:00;;;;;;;8.65;3.40;;;;;;;23.72;44.58;97697.16;1696827;75;1892778;-72
2023/05/28 11:34:30;;;;;;;6.30;3.25;;;;;;;23.86;44.57;97692.84;1702060;75;740883;-70
2023/05/28 11:37:05;;;;;;;7.40;3.50;;;;;;;23.88;44.32;97693.00;1710496;75;682206;-66
2023/05/28 11:39:35;;;;;;;6.70;3.65;;;;;;;24.27;43.71;97693.53;1701998;75;745570;-67
2023/05/28 11:42:11;;;;;;;8.15;3.35;;;;;;;24.17;43.25;97701.81;1710490;75;681963;-68
2023/05/28 11:44:48;;;;;;;5.80;3.00;;;;;;;24.39;42.25;97696.59;1698419;75;923649;-70
2023/05/28 11:47:19;;;;;;;7.00;3.00;;;;;;;24.38;42.99;97692.34;1699254;75;960702;-72
2023/05/28 11:49:51;;;;;;;5.30;2.70;;;;;;;24.49;43.10;97689.13;1710688;75;678267;-72
2023/05/28 11:52:24;;;;;;;4.75;2.90;;;;;;;24.85;43.12;97687.91;1702363;75;670967;-74
2023/05/28 11:55:01;;;;;;;4.50;2.75;;;;;;;25.25;43.48;97690.50;1710560;75;683696;-70
2023/05/28 11:57:38;;;;;;;6.55;2.20;;;;;;;26.31;42.44;97686.22;1699031;75;970788;-74
2023/05/28 12:00:15;;;;;;;3.70;2.30;;;;;;;26.15;41.12;97688.50;1710255;75;681388;-69
2023/05/28 12:02:50;;;;;;;6.75;3.10;;;;;;;25.79;41.83;97686.38;1701704;75;734298;-71
2023/05/28 12:05:22;;;;;;;8.40;2.60;;;;;;;26.45;40.67;97681.69;1706212;75;677849;-71
2023/05/28 12:07:55;;;;;;;6.35;3.05;;;;;;;25.06;40.40;97684.69;1709943;75;669956;-69
2023/05/28 12:10:30;;;;;;;6.50;3.00;;;;;;;26.17;40.38;97687.91;1701168;75;784124;-72
2023/05/28 12:13:03;;;;;;;6.30;3.80;;;;;;;25.93;40.40;97687.50;1710833;75;682275;-72
2023/05/28 12:15:35;;;;;;;6.70;3.20;;;;;;;25.95;40.24;97679.22;1702979;75;677122;-74
2023/05/28 12:18:06;;;;;;;5.30;3.00;;;;;;;26.42;39.96;97685.69;1710619;75;672099;-70
2023/05/28 12:20:40;;;;;;;4.95;2.60;;;;;;;26.63;39.33;97681.66;1702719;75;676800;-71
2023/05/28 12:23:13;;;;;;;7.80;3.70;;;;;;;26.35;40.26;97675.31;1707180;75;977509;-72
2023/05/28 12:25:54;;;;;;;6.10;3.20;;;;;;;26.18;40.22;97681.72;1702980;75;677837;-72
2023/05/28 12:28:27;;;;;;;4.90;2.90;;;;;;;26.23;40.13;97674.38;1702118;75;686013;-70
2023/05/28 12:30:58;;;;;;;4.00;2.75;;;;;;;26.45;39.59;97662.03;1710625;75;685311;-72
2023/05/28 12:33:28;;;;;;;7.00;3.10;;;;;;;26.65;39.08;97662.88;1701926;75;713249;-75
2023/05/28 12:35:59;;;;;;;6.40;2.85;;;;;;;26.29;39.45;97660.78;1710109;75;683858;-71
2023/05/28 12:38:30;;;;;;;8.55;3.75;;;;;;;25.75;39.86;97661.53;1702127;75;677848;-66
2023/05/28 12:41:00;;;;;;;5.60;3.30;;;;;;;26.38;39.82;97662.91;1711140;75;673427;-69
2023/05/28 12:43:33;;;;;;;5.30;3.25;;;;;;;26.36;40.44;97662.75;1677909;75;2745062;-69
2023/05/28 12:46:03;;;;;;;6.30;3.40;;;;;;;26.19;39.71;97652.34;1710298;75;672125;-76
2023/05/28 12:48:33;;;;;;;6.70;3.20;;;;;;;26.38;39.24;97648.88;1677138;75;2814419;-71
2023/05/28 12:51:03;;;;;;;5.85;3.30;;;;;;;26.37;41.55;97644.59;1711189;75;672381;-73
2023/05/28 12:53:33;;;;;;;6.50;3.10;;;;;;;26.93;38.57;97644.59;1699806;75;909190;-73
2023/05/28 12:56:04;;;;;;;5.80;3.20;;;;;;;26.81;38.07;97649.31;1710034;75;681198;-72
2023/05/28 12:58:36;;;;;;;5.60;3.10;;;;;;;26.88;38.74;97639.28;1698737;75;978741;-70
2023/05/28 13:01:07;;;;;;;4.65;2.60;;;;;;;27.27;40.10;97630.88;1709759;75;748663;-69
2023/05/28 13:03:37;;;;;;;6.20;3.10;;;;;;;27.88;37.60;97629.66;1702766;75;673027;-73
2023/05/28 13:06:08;;;;;;;5.10;2.90;;;;;;;27.50;37.14;97630.44;1710055;75;678589;-73
2023/05/28 13:08:38;;;;;;;5.40;3.00;;;;;;;27.34;38.06;97625.09;1702250;75;674187;-70
2023/05/28 13:11:08;;;;;;;7.40;3.70;;;;;;;27.41;38.92;97626.28;1710052;75;678342;-72
2023/05/28 13:13:41;;;;;;;5.50;3.20;;;;;;;26.98;39.67;97618.28;1703396;75;674917;-69
2023/05/28 13:16:11;;;;;;;5.70;3.40;;;;;;;26.99;38.95;97622.59;1710133;75;689957;-70
2023/05/28 13:18:42;;;;;;;5.35;2.60;;;;;;;27.73;38.22;97613.06;1702345;75;677437;-71
2023/05/28 13:21:12;;;;;;;8.60;4.30;;;;;;;26.88;38.62;97608.38;1710257;75;671739;-67
2023/05/28 13:23:43;;;;;;;9.05;3.60;;;;;;;26.58;39.46;97616.03;1703034;75;674838;-70
2023/05/28 13:26:13;;;;;;;7.30;3.40;;;;;;;26.69;39.08;97606.28;1710744;75;678046;-73
2023/05/28 13:28:45;;;;;;;5.50;2.90;;;;;;;26.70;38.98;97600.09;1702929;75;673197;-70
2023/05/28 13:31:16;;;;;;;5.90;3.45;;;;;;;26.96;38.62;97594.91;1710985;75;698381;-69
2023/05/28 13:33:46;;;;;;;7.10;3.70;;;;;;;26.96;38.01;97598.47;1702566;75;748401;-69
2023/05/28 13:36:16;;;;;;;5.65;3.15;;;;;;;26.96;38.52;97592.09;1710422;75;681584;-68
2023/05/28 13:38:49;;;;;;;7.90;3.70;;;;;;;26.67;38.68;97592.09;1701628;75;745584;-70
2023/05/28 13:41:20;;;;;;;6.80;3.40;;;;;;;26.61;38.79;97597.25;1710486;75;688036;-68
2023/05/28 13:43:54;;;;;;;8.15;3.80;;;;;;;26.66;38.76;97590.63;1678048;75;2725411;-70
2023/05/28 13:46:25;;;;;;;6.90;3.40;;;;;;;26.42;39.13;97586.69;1707851;75;911128;-71
2023/05/28 13:48:56;;;;;;;10.50;3.40;;;;;;;26.38;38.10;97586.38;1702114;75;754203;-72
2023/05/28 13:51:26;;;;;;;4.50;2.60;;;;;;;27.16;38.35;97578.81;1710950;75;674933;-72
2023/05/28 13:53:56;;;;;;;4.15;2.40;;;;;;;27.49;38.23;97570.66;1701409;75;753447;-72
2023/05/28 13:56:26;;;;;;;3.90;3.15;;;;;;;27.87;38.50;97563.44;1709517;75;677866;-73
2023/05/28 13:58:59;;;;;;;6.40;2.70;;;;;;;28.03;38.57;97561.75;1700980;75;807178;-71
2023/05/28 14:01:30;;;;;;;3.75;2.00;;;;;;;28.40;37.55;97567.03;1711112;75;671847;-69
2023/05/28 14:04:00;;;;;;;6.45;2.80;;;;;;;28.20;36.67;97560.06;1702432;75;742597;-72
2023/05/28 14:06:32;;;;;;;4.50;2.70;;;;;;;27.91;36.81;97568.63;1710445;75;696934;-71
2023/05/28 14:09:02;;;;;;;7.00;3.35;;;;;;;27.72;36.98;97556.06;1702589;75;730105;-69
2023/05/28 14:11:35;;;;;;;6.05;2.80;;;;;;;28.32;37.45;97554.50;1710380;75;677321;-72
2023/05/28 14:14:07;;;;;;;5.35;2.80;;;;;;;28.29;37.21;97550.81;1700287;75;824373;-70
2023/05/28 14:16:38;;;;;;;6.20;3.00;;;;;;;28.49;37.79;97539.47;1710468;75;671013;-71
2023/05/28 14:19:08;;;;;;;6.00;2.75;;;;;;;28.54;35.74;97546.84;1701497;75;759818;-73
2023/05/28 14:21:38;;;;;;;6.05;2.95;;;;;;;28.19;36.24;97545.25;1710597;75;680229;-67
2023/05/28 14:24:09;;;;;;;5.40;3.05;;;;;;;28.15;35.60;97541.41;1700752;75;748697;-72
2023/05/28 14:26:39;;;;;;;3.70;1.80;;;;;;;28.78;36.49;97542.78;1709422;75;674399;-73
2023/05/28 14:29:12;;;;;;;4.10;2.85;;;;;;;28.35;36.21;97534.31;1702492;75;731464;-69
2023/05/28 14:31:42;;;;;;;4.60;2.90;;;;;;;28.80;35.40;97539.38;1711126;75;677073;-73
2023/05/28 14:34:13;;;;;;;2.75;2.05;;;;;;;29.02;34.91;97532.34;1701962;75;761409;-74
2023/05/28 14:36:43;;;;;;;3.60;2.10;;;;;;;29.24;35.20;97530.25;1707497;75;953169;-70
2023/05/28 14:39:13;;;;;;;4.40;2.75;;;;;;;29.23;35.46;97525.22;1702075;75;744981;-72
2023/05/28 14:41:43;;;;;;;3.85;2.80;;;;;;;28.61;35.29;97529.72;1710561;75;775159;-77
2023/05/28 14:44:16;;;;;;;4.50;2.60;;;;;;;28.92;34.55;97525.34;1702450;75;744355;-74
2023/05/28 14:46:46;;;;;;;2.90;1.90;;;;;;;29.05;34.67;97527.59;1709963;75;681506;-70
2023/05/28 14:49:19;;;;;;;3.30;2.00;;;;;;;29.22;34.97;97520.94;1686948;75;1900944;-69
2023/05/28 14:51:49;;;;;;;3.30;2.00;;;;;;;29.61;34.76;97515.63;1695915;75;1937613;-70
2023/05/28 14:54:19;;;;;;;6.35;3.20;;;;;;;29.33;35.40;97516.69;1702148;75;743765;-76
2023/05/28 14:56:49;;;;;;;5.15;2.60;;;;;;;29.38;35.74;97509.94;1707030;75;949201;-70
2023/05/28 14:59:22;;;;;;;4.90;2.35;;;;;;;29.86;34.82;97517.13;1701636;75;754064;-69
2023/05/28 15:01:52;;;;;;;4.50;2.10;;;;;;;30.04;34.79;97521.06;1711113;75;675497;-71
2023/05/28 15:04:22;;;;;;;5.20;2.70;;;;;;;29.05;34.55;97521.94;1701271;75;751543;-71
2023/05/28 15:06:53;;;;;;;4.70;2.30;;;;;;;28.94;35.69;97522.66;1709971;75;681515;-69
2023/05/28 15:09:23;;;;;;;5.90;3.45;;;;;;;28.39;37.42;97523.34;1701744;75;751734;-75
2023/05/28 15:11:53;;;;;;;6.25;3.05;;;;;;;27.56;37.44;97521.19;1709972;75;684381;-72
2023/05/28 15:14:29;;;;;;;4.90;2.40;;;;;;;27.66;37.35;97532.41;1701684;75;752967;-71
2023/05/28 15:17:00;;;;;;;;;;;;;;;27.44;38.39;97520.34;1701903;75;696329;-66
2023/05/28 15:19:30;;;;;;;4.60;2.50;;;;;;;27.26;39.51;97526.16;1710964;75;677703;-70
2023/05/28 15:22:00;;;;;;;5.45;3.20;;;;;;;26.66;39.02;97526.75;1702425;75;675199;-68
2023/05/28 15:24:34;;;;;;;6.40;3.40;;;;;;;26.21;39.92;97533.91;1710205;75;683125;-72
2023/05/28 15:27:05;;;;;;;4.30;2.75;;;;;;;26.18;40.45;97533.00;1702245;75;685154;-71
2023/05/28 15:29:42;;;;;;;5.10;3.10;;;;;;;25.65;40.46;97534.56;1710926;75;676284;-72
2023/05/28 15:32:14;;;;;;;3.30;2.30;;;;;;;25.80;40.72;97531.53;1703176;75;689603;-70
2023/05/28 15:34:45;;;;;;;2.40;1.75;;;;;;;26.29;40.25;97540.13;1710349;75;681091;-69
2023/05/28 15:37:15;;;;;;;3.00;2.10;;;;;;;26.44;39.85;97533.53;1702592;75;679443;-68
2023/05/28 15:39:46;;;;;;;2.70;2.00;;;;;;;26.63;38.81;97533.56;1711290;75;670681;-69
2023/05/28 15:42:17;;;;;;;3.95;2.30;;;;;;;26.30;39.42;97542.34;1703191;75;679888;-69
2023/05/28 15:44:51;;;;;;;4.60;2.60;;;;;;;26.45;39.70;97530.09;1711094;75;673920;-72
2023/05/28 15:47:21;;;;;;;3.40;2.20;;;;;;;26.90;38.45;97527.78;1702360;75;669927;-68
2023/05/28 15:49:51;;;;;;;3.80;2.30;;;;;;;27.04;38.79;97527.34;1710965;75;674711;-69
2023/05/28 15:52:21;;;;;;;3.60;2.30;;;;;;;27.02;37.66;97530.00;1703651;75;677296;-68
2023/05/28 15:54:52;;;;;;;4.10;1.90;;;;;;;27.07;38.21;97529.72;1709273;75;926627;-71
2023/05/28 15:57:23;;;;;;;4.10;2.20;;;;;;;26.98;37.01;97536.06;1702428;75;699680;-69
2023/05/28 15:59:56;;;;;;;3.30;2.30;;;;;;;26.85;36.43;97548.50;1711671;75;678227;-69
2023/05/28 16:02:30;;;;;;;2.90;2.10;;;;;;;27.09;36.58;97537.56;1702951;75;758814;-70
2023/05/28 16:05:00;;;;;;;3.70;2.20;;;;;;;26.70;36.83;97540.38;1711781;75;668884;-74
2023/05/28 16:07:31;;;;;;;2.25;1.50;;;;;;;27.19;36.83;97543.91;1702152;75;748133;-73
2023/05/28 16:10:02;;;;;;;5.10;3.30;;;;;;;26.26;36.81;97544.09;1710853;75;701536;-72
2023/05/28 16:12:33;;;;;;;3.05;2.10;;;;;;;26.75;37.54;97553.38;1701419;75;741188;-70
2023/05/28 16:15:11;;;;;;;4.70;2.40;;;;;;;26.02;37.68;97543.72;1709938;75;673691;-68
2023/05/28 16:17:41;;;;;;;;;;;;;;;26.22;37.97;97543.81;1700940;75;756054;-74
2023/05/28 16:20:13;;;;;;;5.40;3.00;;;;;;;25.12;38.19;97533.22;1695316;75;1982834;-72
2023/05/28 16:22:45;;;;;;;3.95;2.10;;;;;;;25.71;39.19;97538.59;1702252;75;744281;-74
2023/05/28 16:25:17;;;;;;;5.50;2.30;;;;;;;25.43;39.05;97542.72;1708988;75;796190;-69
2023/05/28 16:27:49;;;;;;;5.70;2.80;;;;;;;25.13;38.73;97531.88;1700999;75;757151;-70
2023/05/28 16:30:23;;;;;;;3.70;2.40;;;;;;;25.02;38.74;97539.47;1709689;75;725050;-68
2023/05/28 16:32:57;;;;;;;4.15;2.60;;;;;;;25.05;39.59;97529.16;1699737;75;823022;-73
2023/05/28 16:35:33;;;;;;;3.50;2.10;;;;;;;25.33;39.37;97529.97;1707301;75;678991;-73